This is the latest recevied weather packets stored in our database for station/object PY2RMF-10. If no packets are shown the sender has not sent any weather packets the latest 10 day(s).
| Time | Temp. | Humidity | Pressure | Rain* | Wind** | Luminosity | Snow |
|---|---|---|---|---|---|---|---|
| 1777504013 | 20° C | 100% | 1004 hPa | - | - | - | - |
| 1777502214 | 20° C | 100% | 1004 hPa | - | - | - | - |
| 1777500414 | 20.56° C | 100% | 1004 hPa | - | - | - | - |
| 1777498613 | 21.11° C | 100% | 1002 hPa | - | - | - | - |
| 1777496813 | 22.22° C | 100% | 1002 hPa | - | - | - | - |
| 1777495013 | 23.89° C | 100% | 1002 hPa | - | - | - | - |
| 1777493213 | 26.67° C | 90% | 1002 hPa | - | - | - | - |
| 1777491414 | 29.44° C | 60% | 1001 hPa | - | - | - | - |
| 1777489613 | 31.11° C | 53% | 1001 hPa | - | - | - | - |
| 1777487813 | 32.22° C | 50% | 1001 hPa | - | - | - | - |
| 1777486013 | 32.78° C | 47% | 1001 hPa | - | - | - | - |
| 1777484213 | 32.22° C | 47% | 1001 hPa | - | - | - | - |
| 1777482414 | 32.78° C | 44% | 1001 hPa | - | - | - | - |
| 1777480614 | 34.44° C | 41% | 1001 hPa | - | - | - | - |
| 1777478813 | 34.44° C | 40% | 1002 hPa | - | - | - | - |
| 1777477013 | 35° C | 49% | 1002 hPa | - | - | - | - |
| 1777475213 | 32.78° C | 63% | 1002 hPa | - | - | - | - |
| 1777473413 | 30° C | 77% | 1003 hPa | - | - | - | - |
| 1777471613 | 29.44° C | 94% | 1003 hPa | - | - | - | - |
| 1777469813 | 28.33° C | 99% | 1004 hPa | - | - | - | - |
| 1777468014 | 26.67° C | 100% | 1004 hPa | - | - | - | - |
| 1777466213 | 25.56° C | 100% | 1004 hPa | - | - | - | - |
| 1777464413 | 25° C | 100% | 1004 hPa | - | - | - | - |
| 1777462613 | 23.89° C | 100% | 1004 hPa | - | - | - | - |
| 1777459013 | 21.67° C | 100% | 1003 hPa | - | - | - | - |
* Rain since midnight (hover to see other rain measurements)
** Current wind speed in m/s (hover to see current wind gust speed)